sensor_id;sensor_type;location;lat;lon;timestamp;temperature;humidity
43999;DHT22;51319;52.162;5.302;2022-12-11T00:00:26;1.30;99.90
43999;DHT22;51319;52.162;5.302;2022-12-11T00:02:53;1.30;99.90
43999;DHT22;51319;52.162;5.302;2022-12-11T00:05:20;1.30;99.90
43999;DHT22;51319;52.162;5.302;2022-12-11T00:07:48;1.30;99.90
43999;DHT22;51319;52.162;5.302;2022-12-11T00:10:15;1.40;99.90
43999;DHT22;51319;52.162;5.302;2022-12-11T00:12:42;1.40;99.90
43999;DHT22;51319;52.162;5.302;2022-12-11T00:15:09;1.40;99.90
43999;DHT22;51319;52.162;5.302;2022-12-11T00:17:39;1.40;99.90
43999;DHT22;51319;52.162;5.302;2022-12-11T00:20:06;1.40;99.90
43999;DHT22;51319;52.162;5.302;2022-12-11T00:22:36;1.40;99.90
43999;DHT22;51319;52.162;5.302;2022-12-11T00:25:04;1.40;99.90
43999;DHT22;51319;52.162;5.302;2022-12-11T00:27:31;1.40;99.90
43999;DHT22;51319;52.162;5.302;2022-12-11T00:29:58;1.40;99.90
43999;DHT22;51319;52.162;5.302;2022-12-11T00:32:25;1.40;99.90
43999;DHT22;51319;52.162;5.302;2022-12-11T00:34:54;1.40;99.90
43999;DHT22;51319;52.162;5.302;2022-12-11T00:37:22;1.40;99.90
43999;DHT22;51319;52.162;5.302;2022-12-11T00:39:50;1.40;99.90
43999;DHT22;51319;52.162;5.302;2022-12-11T00:42:17;1.40;99.90
43999;DHT22;51319;52.162;5.302;2022-12-11T00:44:43;1.40;99.90
43999;DHT22;51319;52.162;5.302;2022-12-11T00:47:12;1.40;99.90
43999;DHT22;51319;52.162;5.302;2022-12-11T00:49:40;1.40;99.90
43999;DHT22;51319;52.162;5.302;2022-12-11T00:52:15;1.40;99.90
43999;DHT22;51319;52.162;5.302;2022-12-11T00:54:44;1.50;99.90
43999;DHT22;51319;52.162;5.302;2022-12-11T00:57:11;1.50;99.90
43999;DHT22;51319;52.162;5.302;2022-12-11T00:59:39;1.50;99.90
43999;DHT22;51319;52.162;5.302;2022-12-11T01:02:06;1.50;99.90
43999;DHT22;51319;52.162;5.302;2022-12-11T01:04:35;1.50;99.90
43999;DHT22;51319;52.162;5.302;2022-12-11T01:07:02;1.60;99.90
43999;DHT22;51319;52.162;5.302;2022-12-11T01:09:29;1.50;99.90
43999;DHT22;51319;52.162;5.302;2022-12-11T01:12:15;1.60;99.90
43999;DHT22;51319;52.162;5.302;2022-12-11T01:14:42;1.50;99.90
43999;DHT22;51319;52.162;5.302;2022-12-11T01:17:09;1.60;99.90
43999;DHT22;51319;52.162;5.302;2022-12-11T01:19:36;1.50;99.90
43999;DHT22;51319;52.162;5.302;2022-12-11T01:22:03;1.50;99.90
43999;DHT22;51319;52.162;5.302;2022-12-11T01:24:30;1.60;99.90
43999;DHT22;51319;52.162;5.302;2022-12-11T01:26:57;1.60;99.90
43999;DHT22;51319;52.162;5.302;2022-12-11T01:29:24;1.60;99.90
43999;DHT22;51319;52.162;5.302;2022-12-11T01:31:51;1.60;99.90
43999;DHT22;51319;52.162;5.302;2022-12-11T01:34:17;1.60;99.90
43999;DHT22;51319;52.162;5.302;2022-12-11T01:36:44;1.60;99.90
43999;DHT22;51319;52.162;5.302;2022-12-11T01:39:11;1.60;99.90
43999;DHT22;51319;52.162;5.302;2022-12-11T01:41:38;1.60;99.90
43999;DHT22;51319;52.162;5.302;2022-12-11T01:46:42;1.60;99.90
43999;DHT22;51319;52.162;5.302;2022-12-11T01:49:12;1.70;99.90
43999;DHT22;51319;52.162;5.302;2022-12-11T01:52:02;1.70;99.90
43999;DHT22;51319;52.162;5.302;2022-12-11T01:54:33;1.70;99.90
43999;DHT22;51319;52.162;5.302;2022-12-11T01:57:04;1.70;99.90
43999;DHT22;51319;52.162;5.302;2022-12-11T01:59:32;1.70;99.90
43999;DHT22;51319;52.162;5.302;2022-12-11T02:02:08;1.70;99.90
43999;DHT22;51319;52.162;5.302;2022-12-11T02:04:38;1.70;99.90
43999;DHT22;51319;52.162;5.302;2022-12-11T02:07:05;1.70;99.90
43999;DHT22;51319;52.162;5.302;2022-12-11T02:09:34;1.70;99.90
43999;DHT22;51319;52.162;5.302;2022-12-11T02:12:30;1.70;99.90
43999;DHT22;51319;52.162;5.302;2022-12-11T02:20:54;1.80;99.90
43999;DHT22;51319;52.162;5.302;2022-12-11T02:23:35;1.80;99.90
43999;DHT22;51319;52.162;5.302;2022-12-11T02:28:57;1.80;99.90
43999;DHT22;51319;52.162;5.302;2022-12-11T02:31:31;1.80;99.90
43999;DHT22;51319;52.162;5.302;2022-12-11T02:34:01;1.80;99.90
43999;DHT22;51319;52.162;5.302;2022-12-11T02:36:34;1.80;99.90
43999;DHT22;51319;52.162;5.302;2022-12-11T02:39:08;1.80;99.90
43999;DHT22;51319;52.162;5.302;2022-12-11T02:41:42;1.80;99.90
43999;DHT22;51319;52.162;5.302;2022-12-11T02:44:10;1.80;99.90
43999;DHT22;51319;52.162;5.302;2022-12-11T02:46:40;1.80;99.90
43999;DHT22;51319;52.162;5.302;2022-12-11T02:49:10;1.90;99.90
43999;DHT22;51319;52.162;5.302;2022-12-11T02:51:42;1.90;99.90
43999;DHT22;51319;52.162;5.302;2022-12-11T02:54:15;1.90;99.90
43999;DHT22;51319;52.162;5.302;2022-12-11T02:59:42;1.90;99.90
43999;DHT22;51319;52.162;5.302;2022-12-11T03:02:15;1.90;99.90
43999;DHT22;51319;52.162;5.302;2022-12-11T03:04:45;1.90;99.90
43999;DHT22;51319;52.162;5.302;2022-12-11T03:07:16;1.90;99.90
43999;DHT22;51319;52.162;5.302;2022-12-11T03:09:46;1.90;99.90
43999;DHT22;51319;52.162;5.302;2022-12-11T03:12:18;1.90;99.90
43999;DHT22;51319;52.162;5.302;2022-12-11T03:14:48;1.90;99.90
43999;DHT22;51319;52.162;5.302;2022-12-11T03:17:22;1.90;99.90
43999;DHT22;51319;52.162;5.302;2022-12-11T03:22:44;1.90;99.90
43999;DHT22;51319;52.162;5.302;2022-12-11T03:25:19;1.90;99.90
43999;DHT22;51319;52.162;5.302;2022-12-11T03:27:57;1.90;99.90
43999;DHT22;51319;52.162;5.302;2022-12-11T03:30:27;2.00;99.90
43999;DHT22;51319;52.162;5.302;2022-12-11T03:33:02;2.00;99.90
43999;DHT22;51319;52.162;5.302;2022-12-11T03:35:47;1.90;99.90
43999;DHT22;51319;52.162;5.302;2022-12-11T03:38:27;1.90;99.90
43999;DHT22;51319;52.162;5.302;2022-12-11T03:40:58;2.00;99.90
43999;DHT22;51319;52.162;5.302;2022-12-11T03:43:28;2.00;99.90
43999;DHT22;51319;52.162;5.302;2022-12-11T03:45:56;2.00;99.90
43999;DHT22;51319;52.162;5.302;2022-12-11T03:48:27;2.00;99.90
43999;DHT22;51319;52.162;5.302;2022-12-11T03:50:59;2.00;99.90
43999;DHT22;51319;52.162;5.302;2022-12-11T03:53:29;2.00;99.90
43999;DHT22;51319;52.162;5.302;2022-12-11T03:55:58;2.00;99.90
43999;DHT22;51319;52.162;5.302;2022-12-11T03:58:26;2.00;99.90
43999;DHT22;51319;52.162;5.302;2022-12-11T04:00:53;2.00;99.90
43999;DHT22;51319;52.162;5.302;2022-12-11T04:03:20;2.00;99.90
43999;DHT22;51319;52.162;5.302;2022-12-11T04:05:51;2.00;99.90
43999;DHT22;51319;52.162;5.302;2022-12-11T04:08:19;2.00;99.90
43999;DHT22;51319;52.162;5.302;2022-12-11T04:10:47;2.00;99.90
43999;DHT22;51319;52.162;5.302;2022-12-11T04:13:35;2.00;99.90
43999;DHT22;51319;52.162;5.302;2022-12-11T04:16:02;1.90;99.90
43999;DHT22;51319;52.162;5.302;2022-12-11T04:18:29;2.00;99.90
43999;DHT22;51319;52.162;5.302;2022-12-11T04:21:16;1.90;99.90
43999;DHT22;51319;52.162;5.302;2022-12-11T04:24:06;1.90;99.90
43999;DHT22;51319;52.162;5.302;2022-12-11T04:26:43;1.90;99.90
43999;DHT22;51319;52.162;5.302;2022-12-11T04:29:10;1.90;99.90
43999;DHT22;51319;52.162;5.302;2022-12-11T04:31:37;1.90;99.90
43999;DHT22;51319;52.162;5.302;2022-12-11T04:34:05;1.90;99.90
43999;DHT22;51319;52.162;5.302;2022-12-11T04:36:32;2.00;99.90
43999;DHT22;51319;52.162;5.302;2022-12-11T04:38:59;1.90;99.90
43999;DHT22;51319;52.162;5.302;2022-12-11T04:41:26;1.90;99.90
43999;DHT22;51319;52.162;5.302;2022-12-11T04:43:53;1.90;99.90
43999;DHT22;51319;52.162;5.302;2022-12-11T04:46:22;1.90;99.90
43999;DHT22;51319;52.162;5.302;2022-12-11T04:48:51;1.90;99.90
43999;DHT22;51319;52.162;5.302;2022-12-11T04:51:23;1.90;99.90
43999;DHT22;51319;52.162;5.302;2022-12-11T04:53:52;1.90;99.90
43999;DHT22;51319;52.162;5.302;2022-12-11T04:56:19;1.90;99.90
43999;DHT22;51319;52.162;5.302;2022-12-11T04:58:48;1.90;99.90
43999;DHT22;51319;52.162;5.302;2022-12-11T05:01:17;1.90;99.90
43999;DHT22;51319;52.162;5.302;2022-12-11T05:03:45;1.90;99.90
43999;DHT22;51319;52.162;5.302;2022-12-11T05:06:13;1.90;99.90
43999;DHT22;51319;52.162;5.302;2022-12-11T05:08:41;1.90;99.90
43999;DHT22;51319;52.162;5.302;2022-12-11T05:11:13;1.90;99.90
43999;DHT22;51319;52.162;5.302;2022-12-11T05:13:40;1.90;99.90
43999;DHT22;51319;52.162;5.302;2022-12-11T05:16:09;1.90;99.90
43999;DHT22;51319;52.162;5.302;2022-12-11T05:18:37;1.90;99.90
43999;DHT22;51319;52.162;5.302;2022-12-11T05:21:06;1.90;99.90
43999;DHT22;51319;52.162;5.302;2022-12-11T05:23:34;1.90;99.90
43999;DHT22;51319;52.162;5.302;2022-12-11T05:26:06;1.90;99.90
43999;DHT22;51319;52.162;5.302;2022-12-11T05:28:35;1.90;99.90
43999;DHT22;51319;52.162;5.302;2022-12-11T05:31:10;1.90;99.90
43999;DHT22;51319;52.162;5.302;2022-12-11T05:33:38;1.90;99.90
43999;DHT22;51319;52.162;5.302;2022-12-11T05:36:06;1.90;99.90
43999;DHT22;51319;52.162;5.302;2022-12-11T05:38:33;1.90;99.90
43999;DHT22;51319;52.162;5.302;2022-12-11T05:41:02;1.90;99.90
43999;DHT22;51319;52.162;5.302;2022-12-11T05:43:31;1.90;99.90
43999;DHT22;51319;52.162;5.302;2022-12-11T05:48:44;1.80;99.90
43999;DHT22;51319;52.162;5.302;2022-12-11T05:51:13;1.80;99.90
43999;DHT22;51319;52.162;5.302;2022-12-11T05:53:41;1.80;99.90
43999;DHT22;51319;52.162;5.302;2022-12-11T05:56:25;1.80;99.90
43999;DHT22;51319;52.162;5.302;2022-12-11T05:58:52;1.80;99.90
43999;DHT22;51319;52.162;5.302;2022-12-11T06:01:40;1.80;99.90
43999;DHT22;51319;52.162;5.302;2022-12-11T06:04:09;1.80;99.90
43999;DHT22;51319;52.162;5.302;2022-12-11T06:06:37;1.80;99.90
43999;DHT22;51319;52.162;5.302;2022-12-11T06:09:06;1.80;99.90
43999;DHT22;51319;52.162;5.302;2022-12-11T06:11:33;1.80;99.90
43999;DHT22;51319;52.162;5.302;2022-12-11T06:14:01;1.80;99.90
43999;DHT22;51319;52.162;5.302;2022-12-11T06:16:28;1.80;99.90
43999;DHT22;51319;52.162;5.302;2022-12-11T06:18:55;1.80;99.90
43999;DHT22;51319;52.162;5.302;2022-12-11T06:21:29;1.80;99.90
43999;DHT22;51319;52.162;5.302;2022-12-11T06:24:00;1.70;99.90
43999;DHT22;51319;52.162;5.302;2022-12-11T06:26:27;1.70;99.90
43999;DHT22;51319;52.162;5.302;2022-12-11T06:28:54;1.80;99.90
43999;DHT22;51319;52.162;5.302;2022-12-11T06:31:21;1.70;99.90
43999;DHT22;51319;52.162;5.302;2022-12-11T06:33:48;1.80;99.90
43999;DHT22;51319;52.162;5.302;2022-12-11T06:36:19;1.80;99.90
43999;DHT22;51319;52.162;5.302;2022-12-11T06:38:46;1.70;99.90
43999;DHT22;51319;52.162;5.302;2022-12-11T06:41:15;1.80;99.90
43999;DHT22;51319;52.162;5.302;2022-12-11T06:43:42;1.70;99.90
43999;DHT22;51319;52.162;5.302;2022-12-11T06:46:13;1.70;99.90
43999;DHT22;51319;52.162;5.302;2022-12-11T06:48:41;1.70;99.90
43999;DHT22;51319;52.162;5.302;2022-12-11T06:51:19;1.70;99.90
43999;DHT22;51319;52.162;5.302;2022-12-11T06:53:51;1.60;99.90
43999;DHT22;51319;52.162;5.302;2022-12-11T06:56:20;1.70;99.90
43999;DHT22;51319;52.162;5.302;2022-12-11T06:58:48;1.70;99.90
43999;DHT22;51319;52.162;5.302;2022-12-11T07:01:23;1.70;99.90
43999;DHT22;51319;52.162;5.302;2022-12-11T07:03:53;1.70;99.90
43999;DHT22;51319;52.162;5.302;2022-12-11T07:06:20;1.70;99.90
43999;DHT22;51319;52.162;5.302;2022-12-11T07:08:48;1.70;99.90
43999;DHT22;51319;52.162;5.302;2022-12-11T07:11:16;1.60;99.90
43999;DHT22;51319;52.162;5.302;2022-12-11T07:13:43;1.60;99.90
43999;DHT22;51319;52.162;5.302;2022-12-11T07:16:12;1.60;99.90
43999;DHT22;51319;52.162;5.302;2022-12-11T07:18:50;1.60;99.90
43999;DHT22;51319;52.162;5.302;2022-12-11T07:21:19;1.60;99.90
43999;DHT22;51319;52.162;5.302;2022-12-11T07:23:49;1.60;99.90
43999;DHT22;51319;52.162;5.302;2022-12-11T07:26:18;1.60;99.90
43999;DHT22;51319;52.162;5.302;2022-12-11T07:28:45;1.60;99.90
43999;DHT22;51319;52.162;5.302;2022-12-11T07:31:18;1.60;99.90
43999;DHT22;51319;52.162;5.302;2022-12-11T07:33:51;1.60;99.90
43999;DHT22;51319;52.162;5.302;2022-12-11T07:36:18;1.60;99.90
43999;DHT22;51319;52.162;5.302;2022-12-11T07:38:45;1.70;99.90
43999;DHT22;51319;52.162;5.302;2022-12-11T07:41:13;1.70;99.90
43999;DHT22;51319;52.162;5.302;2022-12-11T07:43:41;1.60;99.90
43999;DHT22;51319;52.162;5.302;2022-12-11T07:46:14;1.70;99.90
43999;DHT22;51319;52.162;5.302;2022-12-11T07:48:43;1.60;99.90
43999;DHT22;51319;52.162;5.302;2022-12-11T07:51:22;1.60;99.90
43999;DHT22;51319;52.162;5.302;2022-12-11T07:53:54;1.60;99.90
43999;DHT22;51319;52.162;5.302;2022-12-11T07:56:21;1.60;99.90
43999;DHT22;51319;52.162;5.302;2022-12-11T07:58:52;1.60;99.90
43999;DHT22;51319;52.162;5.302;2022-12-11T08:01:22;1.60;99.90
43999;DHT22;51319;52.162;5.302;2022-12-11T08:03:50;1.60;99.90
43999;DHT22;51319;52.162;5.302;2022-12-11T08:06:18;1.70;99.90
43999;DHT22;51319;52.162;5.302;2022-12-11T08:08:46;1.60;99.90
43999;DHT22;51319;52.162;5.302;2022-12-11T08:11:16;1.60;99.90
43999;DHT22;51319;52.162;5.302;2022-12-11T08:13:44;1.60;99.90
43999;DHT22;51319;52.162;5.302;2022-12-11T08:16:15;1.60;99.90
43999;DHT22;51319;52.162;5.302;2022-12-11T08:18:44;1.60;99.90
43999;DHT22;51319;52.162;5.302;2022-12-11T08:21:18;1.60;99.90
43999;DHT22;51319;52.162;5.302;2022-12-11T08:23:49;1.60;99.90
43999;DHT22;51319;52.162;5.302;2022-12-11T08:26:19;1.60;99.90
43999;DHT22;51319;52.162;5.302;2022-12-11T08:28:46;1.60;99.90
43999;DHT22;51319;52.162;5.302;2022-12-11T08:31:14;1.70;99.90
43999;DHT22;51319;52.162;5.302;2022-12-11T08:33:41;1.70;99.90
43999;DHT22;51319;52.162;5.302;2022-12-11T08:36:11;1.70;99.90
43999;DHT22;51319;52.162;5.302;2022-12-11T08:38:38;1.70;99.90
43999;DHT22;51319;52.162;5.302;2022-12-11T08:41:11;1.70;99.90
43999;DHT22;51319;52.162;5.302;2022-12-11T08:43:39;1.70;99.90
43999;DHT22;51319;52.162;5.302;2022-12-11T08:46:08;1.70;99.90
43999;DHT22;51319;52.162;5.302;2022-12-11T08:48:36;1.70;99.90
43999;DHT22;51319;52.162;5.302;2022-12-11T08:51:06;1.70;99.90
43999;DHT22;51319;52.162;5.302;2022-12-11T08:53:36;1.70;99.90
43999;DHT22;51319;52.162;5.302;2022-12-11T08:56:10;1.70;99.90
43999;DHT22;51319;52.162;5.302;2022-12-11T08:58:38;1.70;99.90
43999;DHT22;51319;52.162;5.302;2022-12-11T09:01:07;1.60;99.90
43999;DHT22;51319;52.162;5.302;2022-12-11T09:03:36;1.70;99.90
43999;DHT22;51319;52.162;5.302;2022-12-11T09:06:07;1.70;99.90
43999;DHT22;51319;52.162;5.302;2022-12-11T09:08:35;1.70;99.90
43999;DHT22;51319;52.162;5.302;2022-12-11T09:11:23;1.80;99.90
43999;DHT22;51319;52.162;5.302;2022-12-11T09:13:51;1.80;99.90
43999;DHT22;51319;52.162;5.302;2022-12-11T09:16:20;1.80;99.90
43999;DHT22;51319;52.162;5.302;2022-12-11T09:18:50;1.80;99.90
43999;DHT22;51319;52.162;5.302;2022-12-11T09:21:20;1.90;99.90
43999;DHT22;51319;52.162;5.302;2022-12-11T09:23:48;1.90;99.90
43999;DHT22;51319;52.162;5.302;2022-12-11T09:26:18;1.90;99.90
43999;DHT22;51319;52.162;5.302;2022-12-11T09:28:45;1.90;99.90
43999;DHT22;51319;52.162;5.302;2022-12-11T09:31:24;2.00;99.90
43999;DHT22;51319;52.162;5.302;2022-12-11T09:34:00;2.00;99.90
43999;DHT22;51319;52.162;5.302;2022-12-11T09:36:28;2.00;99.90
43999;DHT22;51319;52.162;5.302;2022-12-11T09:38:59;2.10;99.90
43999;DHT22;51319;52.162;5.302;2022-12-11T09:42:02;2.10;99.90
43999;DHT22;51319;52.162;5.302;2022-12-11T09:44:50;2.10;99.90
43999;DHT22;51319;52.162;5.302;2022-12-11T09:47:48;2.20;99.90
43999;DHT22;51319;52.162;5.302;2022-12-11T09:50:29;2.20;99.90
43999;DHT22;51319;52.162;5.302;2022-12-11T09:53:17;2.30;99.90
43999;DHT22;51319;52.162;5.302;2022-12-11T10:04:09;2.30;99.90
43999;DHT22;51319;52.162;5.302;2022-12-11T10:09:24;2.30;99.90
43999;DHT22;51319;52.162;5.302;2022-12-11T10:12:22;2.30;99.90
43999;DHT22;51319;52.162;5.302;2022-12-11T10:15:18;2.40;99.90
43999;DHT22;51319;52.162;5.302;2022-12-11T10:17:50;2.40;99.90
43999;DHT22;51319;52.162;5.302;2022-12-11T10:20:29;2.40;99.90
43999;DHT22;51319;52.162;5.302;2022-12-11T10:23:00;2.50;99.90
43999;DHT22;51319;52.162;5.302;2022-12-11T10:25:39;2.50;99.80
43999;DHT22;51319;52.162;5.302;2022-12-11T10:28:27;2.50;99.60
43999;DHT22;51319;52.162;5.302;2022-12-11T10:30:57;2.50;99.60
43999;DHT22;51319;52.162;5.302;2022-12-11T10:33:35;2.50;99.70
43999;DHT22;51319;52.162;5.302;2022-12-11T10:36:05;2.60;99.70
43999;DHT22;51319;52.162;5.302;2022-12-11T10:38:38;2.60;99.40
43999;DHT22;51319;52.162;5.302;2022-12-11T10:43:44;2.60;99.20
43999;DHT22;51319;52.162;5.302;2022-12-11T10:46:26;2.60;99.10
43999;DHT22;51319;52.162;5.302;2022-12-11T10:48:57;2.60;99.10
43999;DHT22;51319;52.162;5.302;2022-12-11T10:51:35;2.60;99.10
43999;DHT22;51319;52.162;5.302;2022-12-11T10:54:07;2.70;99.20
43999;DHT22;51319;52.162;5.302;2022-12-11T10:56:45;2.70;99.10
43999;DHT22;51319;52.162;5.302;2022-12-11T10:59:22;2.80;99.10
43999;DHT22;51319;52.162;5.302;2022-12-11T11:01:50;2.70;99.00
43999;DHT22;51319;52.162;5.302;2022-12-11T11:04:34;2.70;99.00
43999;DHT22;51319;52.162;5.302;2022-12-11T11:07:22;2.80;99.10
43999;DHT22;51319;52.162;5.302;2022-12-11T11:09:51;2.80;99.00
43999;DHT22;51319;52.162;5.302;2022-12-11T11:12:28;2.80;98.90
43999;DHT22;51319;52.162;5.302;2022-12-11T11:14:59;2.80;98.90
43999;DHT22;51319;52.162;5.302;2022-12-11T11:17:27;2.80;98.90
43999;DHT22;51319;52.162;5.302;2022-12-11T11:20:05;2.90;98.90
43999;DHT22;51319;52.162;5.302;2022-12-11T11:22:48;2.90;98.70
43999;DHT22;51319;52.162;5.302;2022-12-11T11:25:38;2.90;98.70
43999;DHT22;51319;52.162;5.302;2022-12-11T11:28:07;2.90;98.70
43999;DHT22;51319;52.162;5.302;2022-12-11T11:30:52;2.90;98.60
43999;DHT22;51319;52.162;5.302;2022-12-11T11:33:23;2.90;98.50
43999;DHT22;51319;52.162;5.302;2022-12-11T11:35:59;2.90;98.40
43999;DHT22;51319;52.162;5.302;2022-12-11T11:38:35;2.90;98.30
43999;DHT22;51319;52.162;5.302;2022-12-11T11:41:14;2.90;98.10
43999;DHT22;51319;52.162;5.302;2022-12-11T11:44:10;2.90;98.10
43999;DHT22;51319;52.162;5.302;2022-12-11T11:47:02;3.00;98.10
43999;DHT22;51319;52.162;5.302;2022-12-11T11:57:56;3.10;98.20
43999;DHT22;51319;52.162;5.302;2022-12-11T12:00:28;3.10;98.10
43999;DHT22;51319;52.162;5.302;2022-12-11T12:03:05;3.10;98.20
43999;DHT22;51319;52.162;5.302;2022-12-11T12:08:54;3.20;98.20
43999;DHT22;51319;52.162;5.302;2022-12-11T12:11:39;3.20;98.10
43999;DHT22;51319;52.162;5.302;2022-12-11T12:17:52;3.10;98.10
43999;DHT22;51319;52.162;5.302;2022-12-11T12:20:27;3.10;98.30
43999;DHT22;51319;52.162;5.302;2022-12-11T12:44:58;3.20;97.90
43999;DHT22;51319;52.162;5.302;2022-12-11T12:47:29;3.10;97.90
43999;DHT22;51319;52.162;5.302;2022-12-11T12:49:59;3.10;97.90
43999;DHT22;51319;52.162;5.302;2022-12-11T12:52:35;3.10;98.00
43999;DHT22;51319;52.162;5.302;2022-12-11T12:57:51;3.10;98.10
43999;DHT22;51319;52.162;5.302;2022-12-11T13:00:33;3.10;98.00
43999;DHT22;51319;52.162;5.302;2022-12-11T13:05:42;3.10;97.90
43999;DHT22;51319;52.162;5.302;2022-12-11T13:08:11;3.10;97.90
43999;DHT22;51319;52.162;5.302;2022-12-11T13:10:41;3.20;97.90
43999;DHT22;51319;52.162;5.302;2022-12-11T13:13:36;3.20;97.80
43999;DHT22;51319;52.162;5.302;2022-12-11T13:18:45;3.10;97.80
43999;DHT22;51319;52.162;5.302;2022-12-11T13:23:53;3.40;98.20
43999;DHT22;51319;52.162;5.302;2022-12-11T13:26:31;3.40;97.90
43999;DHT22;51319;52.162;5.302;2022-12-11T13:28:59;3.40;98.00
43999;DHT22;51319;52.162;5.302;2022-12-11T13:31:38;3.50;97.80
43999;DHT22;51319;52.162;5.302;2022-12-11T13:34:20;3.40;97.50
43999;DHT22;51319;52.162;5.302;2022-12-11T13:36:53;3.40;97.60
43999;DHT22;51319;52.162;5.302;2022-12-11T13:39:26;3.40;97.50
43999;DHT22;51319;52.162;5.302;2022-12-11T13:41:59;3.40;97.30
43999;DHT22;51319;52.162;5.302;2022-12-11T13:44:32;3.30;97.20
43999;DHT22;51319;52.162;5.302;2022-12-11T13:47:02;3.20;97.30
43999;DHT22;51319;52.162;5.302;2022-12-11T13:49:36;3.20;97.10
43999;DHT22;51319;52.162;5.302;2022-12-11T13:52:05;3.10;97.20
43999;DHT22;51319;52.162;5.302;2022-12-11T13:54:34;3.10;97.30
43999;DHT22;51319;52.162;5.302;2022-12-11T13:59:40;3.00;97.30
43999;DHT22;51319;52.162;5.302;2022-12-11T14:02:25;3.00;97.30
43999;DHT22;51319;52.162;5.302;2022-12-11T14:05:15;3.00;97.40
43999;DHT22;51319;52.162;5.302;2022-12-11T14:07:50;2.90;97.40
43999;DHT22;51319;52.162;5.302;2022-12-11T14:10:30;2.90;97.50
43999;DHT22;51319;52.162;5.302;2022-12-11T14:13:38;2.90;97.50
43999;DHT22;51319;52.162;5.302;2022-12-11T14:15:58;2.90;97.50
43999;DHT22;51319;52.162;5.302;2022-12-11T14:18:32;2.80;97.50
43999;DHT22;51319;52.162;5.302;2022-12-11T14:21:05;2.80;97.50
43999;DHT22;51319;52.162;5.302;2022-12-11T14:23:35;2.80;97.70
43999;DHT22;51319;52.162;5.302;2022-12-11T14:26:16;2.80;97.70
43999;DHT22;51319;52.162;5.302;2022-12-11T14:28:43;2.80;97.80
43999;DHT22;51319;52.162;5.302;2022-12-11T14:31:15;2.70;97.70
43999;DHT22;51319;52.162;5.302;2022-12-11T14:36:34;2.70;97.80
43999;DHT22;51319;52.162;5.302;2022-12-11T14:39:05;2.70;98.10
43999;DHT22;51319;52.162;5.302;2022-12-11T14:41:44;2.60;97.80
43999;DHT22;51319;52.162;5.302;2022-12-11T14:44:16;2.60;98.00
43999;DHT22;51319;52.162;5.302;2022-12-11T14:46:51;2.60;98.00
43999;DHT22;51319;52.162;5.302;2022-12-11T14:51:51;2.60;98.20
43999;DHT22;51319;52.162;5.302;2022-12-11T14:54:34;2.60;98.20
43999;DHT22;51319;52.162;5.302;2022-12-11T14:57:06;2.50;98.20
43999;DHT22;51319;52.162;5.302;2022-12-11T14:59:43;2.50;98.30
43999;DHT22;51319;52.162;5.302;2022-12-11T15:05:13;2.50;98.40
43999;DHT22;51319;52.162;5.302;2022-12-11T15:10:42;2.40;98.50
43999;DHT22;51319;52.162;5.302;2022-12-11T15:13:22;2.40;98.60
43999;DHT22;51319;52.162;5.302;2022-12-11T15:15:52;2.40;98.70
43999;DHT22;51319;52.162;5.302;2022-12-11T15:18:26;2.40;98.70
43999;DHT22;51319;52.162;5.302;2022-12-11T15:20:57;2.50;98.70
43999;DHT22;51319;52.162;5.302;2022-12-11T15:23:26;2.40;98.70
43999;DHT22;51319;52.162;5.302;2022-12-11T15:25:56;2.40;98.70
43999;DHT22;51319;52.162;5.302;2022-12-11T15:28:35;2.40;98.80
43999;DHT22;51319;52.162;5.302;2022-12-11T15:31:21;2.40;98.80
43999;DHT22;51319;52.162;5.302;2022-12-11T15:33:53;2.40;98.80
43999;DHT22;51319;52.162;5.302;2022-12-11T15:36:25;2.30;98.80
43999;DHT22;51319;52.162;5.302;2022-12-11T15:38:56;2.30;98.90
43999;DHT22;51319;52.162;5.302;2022-12-11T15:41:26;2.30;98.90
43999;DHT22;51319;52.162;5.302;2022-12-11T15:43:55;2.30;99.00
43999;DHT22;51319;52.162;5.302;2022-12-11T15:46:26;2.30;98.90
43999;DHT22;51319;52.162;5.302;2022-12-11T15:48:55;2.30;99.00
43999;DHT22;51319;52.162;5.302;2022-12-11T15:51:22;2.30;99.00
43999;DHT22;51319;52.162;5.302;2022-12-11T15:53:53;2.30;99.00
43999;DHT22;51319;52.162;5.302;2022-12-11T15:56:21;2.20;99.00
43999;DHT22;51319;52.162;5.302;2022-12-11T15:58:48;2.20;99.00
43999;DHT22;51319;52.162;5.302;2022-12-11T16:01:15;2.20;99.00
43999;DHT22;51319;52.162;5.302;2022-12-11T16:03:43;2.20;99.00
43999;DHT22;51319;52.162;5.302;2022-12-11T16:06:12;2.20;99.00
43999;DHT22;51319;52.162;5.302;2022-12-11T16:08:40;2.20;99.00
43999;DHT22;51319;52.162;5.302;2022-12-11T16:11:11;2.20;99.10
43999;DHT22;51319;52.162;5.302;2022-12-11T16:13:38;2.30;99.00
43999;DHT22;51319;52.162;5.302;2022-12-11T16:16:07;2.30;99.00
43999;DHT22;51319;52.162;5.302;2022-12-11T16:18:34;2.20;99.00
43999;DHT22;51319;52.162;5.302;2022-12-11T16:21:04;2.20;99.00
43999;DHT22;51319;52.162;5.302;2022-12-11T16:23:31;2.20;99.00
43999;DHT22;51319;52.162;5.302;2022-12-11T16:26:05;2.20;99.00
43999;DHT22;51319;52.162;5.302;2022-12-11T16:28:32;2.20;99.00
43999;DHT22;51319;52.162;5.302;2022-12-11T16:31:02;2.20;99.10
43999;DHT22;51319;52.162;5.302;2022-12-11T16:33:29;2.20;99.00
43999;DHT22;51319;52.162;5.302;2022-12-11T16:35:56;2.20;99.00
43999;DHT22;51319;52.162;5.302;2022-12-11T16:38:25;2.20;99.00
43999;DHT22;51319;52.162;5.302;2022-12-11T16:40:59;2.20;98.90
43999;DHT22;51319;52.162;5.302;2022-12-11T16:43:26;2.20;98.90
43999;DHT22;51319;52.162;5.302;2022-12-11T16:45:53;2.20;98.90
43999;DHT22;51319;52.162;5.302;2022-12-11T16:48:21;2.20;98.90
43999;DHT22;51319;52.162;5.302;2022-12-11T16:50:49;2.20;98.80
43999;DHT22;51319;52.162;5.302;2022-12-11T16:53:17;2.20;98.80
43999;DHT22;51319;52.162;5.302;2022-12-11T16:55:44;2.20;98.80
43999;DHT22;51319;52.162;5.302;2022-12-11T16:58:14;2.20;98.70
43999;DHT22;51319;52.162;5.302;2022-12-11T17:01:10;2.20;98.60
43999;DHT22;51319;52.162;5.302;2022-12-11T17:03:42;2.20;98.60
43999;DHT22;51319;52.162;5.302;2022-12-11T17:06:11;2.20;98.70
43999;DHT22;51319;52.162;5.302;2022-12-11T17:08:39;2.20;98.60
43999;DHT22;51319;52.162;5.302;2022-12-11T17:11:11;2.20;98.50
43999;DHT22;51319;52.162;5.302;2022-12-11T17:13:39;2.20;98.50
43999;DHT22;51319;52.162;5.302;2022-12-11T17:16:08;2.10;98.40
43999;DHT22;51319;52.162;5.302;2022-12-11T17:18:37;2.10;98.40
43999;DHT22;51319;52.162;5.302;2022-12-11T17:21:06;2.10;98.30
43999;DHT22;51319;52.162;5.302;2022-12-11T17:23:33;2.10;98.30
43999;DHT22;51319;52.162;5.302;2022-12-11T17:26:00;2.10;98.20
43999;DHT22;51319;52.162;5.302;2022-12-11T17:28:28;2.20;98.40
43999;DHT22;51319;52.162;5.302;2022-12-11T17:30:56;2.10;97.80
43999;DHT22;51319;52.162;5.302;2022-12-11T17:33:23;2.10;97.60
43999;DHT22;51319;52.162;5.302;2022-12-11T17:35:50;2.10;97.50
43999;DHT22;51319;52.162;5.302;2022-12-11T17:38:17;2.20;97.50
43999;DHT22;51319;52.162;5.302;2022-12-11T17:40:45;2.20;97.40
43999;DHT22;51319;52.162;5.302;2022-12-11T17:43:13;2.20;97.40
43999;DHT22;51319;52.162;5.302;2022-12-11T17:45:44;2.20;97.40
43999;DHT22;51319;52.162;5.302;2022-12-11T17:48:13;2.20;97.40